Time;durP1;ratioP1;P1;durP2;ratioP2;P2;SDS_P1;SDS_P2;PMS_P1;PMS_P2;Temp;Humidity;BMP_temperature;BMP_pressure;BME280_temperature;BME280_humidity;BME280_pressure;Samples;Min_cycle;Max_cycle;Signal;HPM_P1;HPM_P2
2022/10/05 00:01:33;;;;;;;11.30;5.00;;;;;;;6.99;95.36;97483.52;108361;1268;22940;-82
2022/10/05 00:04:14;;;;;;;9.30;4.90;;;;;;;7.00;95.35;97490.77;108360;1268;23743;-82
2022/10/05 00:06:50;;;;;;;8.50;4.50;;;;;;;7.01;95.52;97490.67;108333;1268;22543;-82
2022/10/05 00:09:22;;;;;;;8.80;4.60;;;;;;;7.04;95.51;97500.90;108273;1268;38966;-82
2022/10/05 00:11:53;;;;;;;8.20;4.70;;;;;;;7.06;95.39;97494.33;108346;1268;22533;-82
2022/10/05 00:14:31;;;;;;;8.80;4.70;;;;;;;7.04;95.20;97492.66;108294;1270;23283;-82
2022/10/05 00:17:04;;;;;;;9.30;4.60;;;;;;;7.04;95.24;97493.77;108324;1268;23895;-82
2022/10/05 00:19:37;;;;;;;8.30;5.30;;;;;;;7.03;95.26;97485.88;108265;1268;33304;-82
2022/10/05 00:22:14;;;;;;;9.50;4.40;;;;;;;7.02;95.31;97488.72;108373;1268;22669;-83
2022/10/05 00:24:45;;;;;;;6.60;3.60;;;;;;;6.98;95.20;97489.30;108365;1269;22541;-82
2022/10/05 00:27:20;;;;;;;9.00;4.30;;;;;;;6.96;95.17;97490.06;108348;1268;24202;-82
2022/10/05 00:29:54;;;;;;;5.90;4.30;;;;;;;6.90;94.74;97494.41;108276;1268;24814;-82
2022/10/05 00:32:25;;;;;;;9.80;4.70;;;;;;;6.78;94.33;97488.02;108330;1268;22545;-82
2022/10/05 00:34:57;;;;;;;9.50;3.80;;;;;;;6.68;94.29;97484.48;108345;1268;22561;-82
2022/10/05 00:37:28;;;;;;;6.20;4.00;;;;;;;6.65;94.53;97480.88;108332;1268;22532;-83
2022/10/05 00:39:59;;;;;;;6.40;3.80;;;;;;;6.63;94.61;97478.52;108231;1270;29303;-82
2022/10/05 00:42:45;;;;;;;7.70;4.10;;;;;;;6.57;94.83;97477.75;108366;1268;24228;-82
2022/10/05 00:45:21;;;;;;;7.40;4.30;;;;;;;6.63;95.39;97478.23;108356;1268;23241;-82
2022/10/05 00:48:06;;;;;;;7.60;4.50;;;;;;;6.69;95.57;97476.37;108373;1268;22519;-82
2022/10/05 00:50:54;;;;;;;6.20;3.50;;;;;;;6.73;95.51;97475.87;108308;1268;27642;-82
2022/10/05 00:53:41;;;;;;;11.20;4.70;;;;;;;6.74;95.70;97483.43;108341;1268;22542;-82
2022/10/05 00:56:39;;;;;;;6.70;4.20;;;;;;;6.78;95.78;97480.42;108371;1268;22539;-82
2022/10/05 00:59:17;;;;;;;8.80;4.80;;;;;;;6.83;95.90;97471.82;108260;1269;32159;-82
2022/10/05 01:01:57;;;;;;;9.50;4.90;;;;;;;6.86;95.93;97477.40;108303;1270;22561;-82
2022/10/05 01:04:35;;;;;;;7.50;4.50;;;;;;;6.83;95.79;97478.47;108314;1270;24469;-82
2022/10/05 01:07:14;;;;;;;7.50;4.20;;;;;;;6.80;95.97;97476.55;108317;1270;25239;-82
2022/10/05 01:09:52;;;;;;;9.20;4.50;;;;;;;6.80;96.01;97476.35;108259;1270;31276;-82
2022/10/05 01:12:32;;;;;;;8.80;4.40;;;;;;;6.78;95.87;97477.94;108274;1270;23858;-82
2022/10/05 01:15:13;;;;;;;9.00;4.30;;;;;;;6.72;95.88;97480.34;108164;1270;22470;-81
2022/10/05 01:17:50;;;;;;;10.40;4.80;;;;;;;6.66;95.93;97486.96;108291;1270;25458;-82
2022/10/05 01:20:38;;;;;;;7.40;4.20;;;;;;;6.62;96.11;97483.59;108232;1270;23353;-81
2022/10/05 01:23:41;;;;;;;6.30;3.70;;;;;;;6.56;96.00;97481.95;108325;1268;22679;-82
2022/10/05 01:26:45;;;;;;;8.10;4.00;;;;;;;6.53;96.19;97476.09;108205;1268;22552;-82
2022/10/05 01:29:23;;;;;;;8.70;4.50;;;;;;;6.49;96.35;97483.66;108089;1270;26542;-82
2022/10/05 01:32:04;;;;;;;9.60;5.10;;;;;;;6.48;96.55;97484.90;108249;1270;22524;-82
2022/10/05 01:34:41;;;;;;;8.40;4.30;;;;;;;6.50;96.64;97486.48;108313;1268;22553;-81
2022/10/05 01:37:23;;;;;;;11.20;4.10;;;;;;;6.51;96.73;97483.34;108320;1270;23767;-82
2022/10/05 01:40:03;;;;;;;7.90;3.90;;;;;;;6.54;96.90;97479.23;108203;1270;41030;-81
2022/10/05 01:42:43;;;;;;;7.70;4.70;;;;;;;6.56;96.76;97485.38;108230;1270;22541;-81
2022/10/05 01:45:26;;;;;;;8.30;4.70;;;;;;;6.56;96.58;97482.52;108293;1270;22705;-82
2022/10/05 01:48:03;;;;;;;9.40;4.90;;;;;;;6.55;96.37;97485.46;108272;1270;22632;-82
2022/10/05 01:50:47;;;;;;;8.60;3.80;;;;;;;6.54;96.48;97480.07;108091;1271;33656;-82
2022/10/05 01:53:32;;;;;;;7.40;4.00;;;;;;;6.54;96.47;97483.12;108262;1269;22540;-82
2022/10/05 01:56:17;;;;;;;9.90;4.20;;;;;;;6.54;96.35;97476.18;108285;1270;24045;-82
2022/10/05 01:58:55;;;;;;;8.20;3.90;;;;;;;6.55;96.47;97472.13;108230;1270;33375;-81
2022/10/05 02:01:32;;;;;;;9.60;4.40;;;;;;;6.54;96.39;97467.38;108304;1270;22461;-82
2022/10/05 02:04:09;;;;;;;10.80;4.50;;;;;;;6.51;96.40;97469.69;108309;1270;22526;-82
2022/10/05 02:06:43;;;;;;;7.20;4.30;;;;;;;6.47;96.27;97467.23;108250;1270;22545;-82
2022/10/05 02:09:18;;;;;;;10.30;4.90;;;;;;;6.43;96.38;97465.48;108244;1269;24404;-81
2022/10/05 02:11:54;;;;;;;7.80;4.10;;;;;;;6.38;96.18;97464.33;108296;1270;22619;-82
2022/10/05 02:14:30;;;;;;;8.70;4.10;;;;;;;6.33;96.21;97465.10;108164;1270;22536;-82
2022/10/05 02:17:13;;;;;;;7.90;4.50;;;;;;;6.32;96.55;97466.20;108297;1270;22616;-82
2022/10/05 02:19:50;;;;;;;8.80;4.50;;;;;;;6.36;96.76;97458.18;108230;1270;33268;-81
2022/10/05 02:22:28;;;;;;;8.20;4.40;;;;;;;6.36;96.68;97452.14;108269;1270;22541;-81
2022/10/05 02:25:03;;;;;;;5.80;4.20;;;;;;;6.38;96.70;97455.02;108219;1270;190629;-81
2022/10/05 02:27:39;;;;;;;6.30;3.90;;;;;;;6.38;96.52;97458.48;108331;1269;22711;-82
2022/10/05 02:30:12;;;;;;;7.90;4.60;;;;;;;6.37;96.53;97458.59;108108;1270;28860;-82
2022/10/05 02:32:51;;;;;;;7.70;4.40;;;;;;;6.37;96.66;97452.48;108307;1270;25467;-82
2022/10/05 02:35:23;;;;;;;7.70;4.20;;;;;;;6.40;96.80;97449.21;108333;1270;25224;-82
2022/10/05 02:38:11;;;;;;;7.20;3.10;;;;;;;6.43;96.76;97446.84;108340;1269;24143;-82
2022/10/05 02:40:54;;;;;;;8.80;4.10;;;;;;;6.48;96.63;97442.50;108272;1270;28432;-81
2022/10/05 02:43:37;;;;;;;9.10;3.80;;;;;;;6.50;96.48;97438.48;108292;1270;22614;-82
2022/10/05 02:46:17;;;;;;;7.30;3.90;;;;;;;6.52;96.47;97433.55;108314;1270;22536;-82
2022/10/05 02:49:02;;;;;;;7.80;3.40;;;;;;;6.54;96.25;97440.35;108231;1270;35022;-81
2022/10/05 02:51:39;;;;;;;5.50;3.30;;;;;;;6.52;96.37;97431.92;108232;1270;22554;-81
2022/10/05 02:54:22;;;;;;;6.30;3.10;;;;;;;6.53;96.38;97427.85;108319;1270;22535;-82
2022/10/05 02:56:59;;;;;;;7.50;4.00;;;;;;;6.53;96.01;97420.05;108186;1270;22666;-82
2022/10/05 02:59:38;;;;;;;7.40;3.90;;;;;;;6.54;96.19;97424.07;108227;1270;30012;-82
2022/10/05 03:02:15;;;;;;;8.50;3.60;;;;;;;6.57;95.98;97427.21;108206;1270;22583;-82
2022/10/05 03:04:57;;;;;;;7.30;2.80;;;;;;;6.63;95.94;97435.25;108330;1270;22526;-81
2022/10/05 03:07:35;;;;;;;6.00;3.40;;;;;;;6.73;95.60;97429.70;108219;1270;22555;-82
2022/10/05 03:10:12;;;;;;;6.30;3.00;;;;;;;6.75;95.24;97421.38;108181;1270;31332;-81
2022/10/05 03:12:54;;;;;;;6.10;3.10;;;;;;;6.73;95.04;97425.92;108133;1271;24277;-81
2022/10/05 03:15:58;;;;;;;6.20;2.80;;;;;;;6.72;95.14;97438.02;108244;1270;22610;-82
2022/10/05 03:18:40;;;;;;;8.30;3.70;;;;;;;6.68;94.86;97434.72;108095;1271;33445;-81
2022/10/05 03:21:23;;;;;;;8.40;3.30;;;;;;;6.65;95.08;97424.55;108317;1270;22545;-82
2022/10/05 03:24:06;;;;;;;5.60;3.40;;;;;;;6.62;95.04;97426.38;108297;1270;22644;-82
2022/10/05 03:26:44;;;;;;;6.70;3.30;;;;;;;6.59;95.08;97424.98;108325;1270;24272;-81
2022/10/05 03:29:28;;;;;;;6.50;3.30;;;;;;;6.61;95.03;97420.57;108230;1270;27086;-82
2022/10/05 03:32:07;;;;;;;5.40;3.00;;;;;;;6.65;95.01;97413.61;108300;1270;22549;-81
2022/10/05 03:34:45;;;;;;;5.20;3.30;;;;;;;6.68;94.99;97423.77;108262;1270;23171;-82
2022/10/05 03:37:22;;;;;;;8.00;3.50;;;;;;;6.75;94.84;97418.52;108329;1270;24180;-82
2022/10/05 03:40:01;;;;;;;5.00;2.50;;;;;;;6.78;94.59;97422.66;108245;1270;28965;-82
2022/10/05 03:42:50;;;;;;;6.20;3.00;;;;;;;6.81;94.25;97417.54;108315;1270;22615;-82
2022/10/05 03:45:28;;;;;;;7.20;3.00;;;;;;;6.87;94.27;97411.95;108236;1270;22840;-82
2022/10/05 03:48:08;;;;;;;5.20;2.70;;;;;;;6.91;93.71;97423.08;108316;1270;23506;-82
2022/10/05 03:50:52;;;;;;;7.40;3.10;;;;;;;6.91;93.59;97421.44;108162;1270;30207;-81
2022/10/05 03:53:26;;;;;;;4.70;3.40;;;;;;;6.91;93.36;97425.30;108267;1269;25308;-82
2022/10/05 03:56:05;;;;;;;4.30;2.60;;;;;;;6.89;93.19;97430.27;108215;1270;22722;-81
2022/10/05 03:58:42;;;;;;;6.80;2.80;;;;;;;6.88;93.12;97433.58;108183;1270;25073;-81
2022/10/05 04:01:19;;;;;;;5.50;3.50;;;;;;;6.84;93.20;97438.89;108233;1270;24958;-82
2022/10/05 04:03:57;;;;;;;4.90;3.30;;;;;;;6.79;92.90;97440.70;108225;1270;22534;-82
2022/10/05 04:06:33;;;;;;;7.10;3.60;;;;;;;6.75;92.86;97444.94;108237;1270;22555;-82
2022/10/05 04:09:12;;;;;;;5.70;3.40;;;;;;;6.72;92.95;97447.55;108179;1270;26078;-82
2022/10/05 04:11:48;;;;;;;5.40;3.10;;;;;;;6.69;92.99;97455.23;108294;1270;22663;-82
2022/10/05 04:14:26;;;;;;;5.50;3.20;;;;;;;6.69;93.05;97460.52;108314;1270;25463;-82
2022/10/05 04:17:03;;;;;;;7.00;3.10;;;;;;;6.68;93.11;97469.04;108313;1270;22560;-82
2022/10/05 04:19:39;;;;;;;6.50;3.20;;;;;;;6.71;93.17;97475.46;108256;1270;25036;-82
2022/10/05 04:22:16;;;;;;;6.90;3.20;;;;;;;6.73;93.14;97475.51;108348;1269;24246;-82
2022/10/05 04:24:55;;;;;;;7.10;3.30;;;;;;;6.71;93.07;97470.73;108354;1268;23871;-81
2022/10/05 04:27:32;;;;;;;8.30;4.10;;;;;;;6.66;93.22;97463.05;108323;1268;24015;-82
2022/10/05 04:30:11;;;;;;;5.50;3.70;;;;;;;6.62;93.13;97449.62;108274;1268;25626;-82
2022/10/05 04:32:45;;;;;;;9.00;3.80;;;;;;;6.56;93.29;97446.48;108302;1270;22574;-82
2022/10/05 04:35:32;;;;;;;6.40;3.20;;;;;;;6.51;93.40;97455.67;108341;1268;22556;-82
2022/10/05 04:38:23;;;;;;;7.10;3.40;;;;;;;6.51;93.77;97455.83;108342;1268;22994;-82
2022/10/05 04:41:08;;;;;;;7.60;3.30;;;;;;;6.53;93.79;97441.59;108287;1270;22552;-82
2022/10/05 04:43:52;;;;;;;8.70;3.60;;;;;;;6.56;93.92;97438.74;108331;1270;22569;-81
2022/10/05 04:46:37;;;;;;;6.30;3.40;;;;;;;6.60;93.73;97430.23;108340;1269;25290;-82
2022/10/05 04:49:24;;;;;;;5.50;2.60;;;;;;;6.63;93.62;97415.29;108274;1270;26047;-82
2022/10/05 04:52:06;;;;;;;6.90;4.10;;;;;;;6.62;93.55;97416.27;108286;1270;24375;-82
2022/10/05 04:54:51;;;;;;;3.10;2.10;;;;;;;6.63;93.22;97429.84;108295;1270;22561;-82
2022/10/05 04:57:34;;;;;;;5.80;3.00;;;;;;;6.67;93.06;97432.81;108259;1270;23042;-82
2022/10/05 05:00:19;;;;;;;4.60;2.20;;;;;;;6.70;92.91;97431.17;108197;1268;45229;-82
2022/10/05 05:03:03;;;;;;;7.30;2.90;;;;;;;6.79;92.96;97429.84;108271;1270;22529;-82
2022/10/05 05:05:49;;;;;;;3.40;2.30;;;;;;;7.13;92.61;97423.64;108251;1270;22665;-82
2022/10/05 05:08:36;;;;;;;5.10;2.50;;;;;;;7.53;91.37;97423.76;108274;1270;22760;-81
2022/10/05 05:11:21;;;;;;;5.20;2.80;;;;;;;7.56;89.78;97424.86;108299;1269;25305;-81
2022/10/05 05:14:25;;;;;;;2.70;1.80;;;;;;;7.48;89.15;97416.29;108298;1270;23864;-82
2022/10/05 05:17:09;;;;;;;4.80;2.60;;;;;;;7.41;89.11;97422.34;108153;1271;22671;-81
2022/10/05 05:19:51;;;;;;;5.90;2.60;;;;;;;7.35;89.05;97420.29;108236;1270;26995;-82
2022/10/05 05:22:30;;;;;;;5.90;2.60;;;;;;;7.28;89.21;97418.84;108239;1270;22536;-81
2022/10/05 05:25:19;;;;;;;4.80;2.80;;;;;;;7.25;89.45;97420.10;108148;1271;23900;-82
2022/10/05 05:27:55;;;;;;;5.80;2.80;;;;;;;7.24;89.53;97406.27;108304;1270;22871;-81
2022/10/05 05:30:39;;;;;;;4.50;2.50;;;;;;;7.30;89.58;97401.67;108268;1270;32927;-82
2022/10/05 05:33:20;;;;;;;4.20;2.50;;;;;;;7.59;89.26;97412.98;108350;1270;22535;-82
2022/10/05 05:36:13;;;;;;;3.20;2.30;;;;;;;7.92;88.41;97421.33;108336;1268;23029;-82
2022/10/05 05:38:51;;;;;;;3.90;2.40;;;;;;;8.07;87.21;97418.39;108252;1270;23480;-81
2022/10/05 05:41:33;;;;;;;9.80;2.20;;;;;;;8.39;86.70;97423.61;108323;1270;24386;-82
2022/10/05 05:44:19;;;;;;;5.80;2.40;;;;;;;8.71;85.79;97429.20;108260;1270;22544;-82
2022/10/05 05:46:58;;;;;;;7.30;2.50;;;;;;;9.18;84.93;97428.42;108298;1270;25106;-82
2022/10/05 05:49:38;;;;;;;5.60;2.40;;;;;;;9.48;83.39;97425.75;108226;1270;28426;-82
2022/10/05 05:52:16;;;;;;;4.50;2.30;;;;;;;9.91;82.16;97423.31;108292;1270;22544;-83
2022/10/05 05:54:56;;;;;;;3.80;2.30;;;;;;;10.35;80.40;97437.47;108292;1270;22541;-82
2022/10/05 05:57:35;;;;;;;5.40;2.40;;;;;;;10.23;79.56;97432.56;108310;1270;22646;-82
2022/10/05 06:00:18;;;;;;;4.20;2.00;;;;;;;9.80;78.91;97429.11;108242;1270;26684;-82
2022/10/05 06:02:54;;;;;;;5.70;2.40;;;;;;;9.47;79.27;97430.89;108323;1270;22520;-82
2022/10/05 06:05:31;;;;;;;5.50;2.50;;;;;;;9.54;79.50;97422.98;108170;1270;24319;-82
2022/10/05 06:08:08;;;;;;;6.00;2.80;;;;;;;9.49;79.42;97427.62;108310;1270;22548;-82
2022/10/05 06:10:47;;;;;;;5.40;2.60;;;;;;;9.40;79.85;97431.77;108183;1270;35419;-82
2022/10/05 06:13:24;;;;;;;4.10;2.50;;;;;;;9.26;79.57;97425.08;108300;1270;24230;-81
2022/10/05 06:16:04;;;;;;;6.20;2.50;;;;;;;9.17;79.88;97433.61;108353;1270;25261;-82
2022/10/05 06:18:37;;;;;;;4.60;2.70;;;;;;;9.19;80.11;97444.31;108228;1270;29795;-82
2022/10/05 06:21:16;;;;;;;4.30;2.10;;;;;;;9.28;79.78;97433.60;108296;1270;22622;-82
2022/10/05 06:23:54;;;;;;;4.60;2.80;;;;;;;9.27;79.45;97428.82;108332;1270;22653;-82
2022/10/05 06:26:46;;;;;;;5.50;2.90;;;;;;;9.32;80.06;97423.44;108213;1270;22545;-83
2022/10/05 06:29:23;;;;;;;3.60;2.40;;;;;;;9.27;79.54;97414.18;107985;1271;29748;-83
2022/10/05 06:32:06;;;;;;;3.90;2.00;;;;;;;9.04;79.49;97426.42;108285;1270;22546;-83
2022/10/05 06:34:57;;;;;;;5.30;2.90;;;;;;;9.01;80.23;97439.29;108270;1270;24206;-83
2022/10/05 06:37:44;;;;;;;5.30;3.10;;;;;;;9.07;80.60;97443.65;108297;1270;22541;-83
2022/10/05 06:40:27;;;;;;;4.80;2.50;;;;;;;9.20;80.45;97442.31;108248;1270;25868;-83
2022/10/05 06:43:18;;;;;;;3.60;2.60;;;;;;;9.39;80.11;97448.92;108362;1271;22568;-83
2022/10/05 06:45:54;;;;;;;;;;;;;;;9.60;79.68;97439.63;108339;1270;22550;-83
2022/10/05 06:48:37;;;;;;;4.50;2.40;;;;;;;9.83;79.05;97443.23;108213;1270;33882;-81
2022/10/05 06:51:17;;;;;;;4.70;2.70;;;;;;;10.54;78.06;97453.17;108299;1270;23156;-82
2022/10/05 06:54:00;;;;;;;4.30;2.60;;;;;;;10.50;76.63;97458.29;108265;1270;23870;-82
2022/10/05 06:56:40;;;;;;;4.60;2.50;;;;;;;10.19;76.13;97464.76;108295;1270;22750;-82
2022/10/05 06:59:20;;;;;;;5.10;2.50;;;;;;;9.98;76.45;97464.75;108086;1270;33586;-82
2022/10/05 07:02:02;;;;;;;6.60;2.90;;;;;;;9.88;76.22;97465.30;108348;1270;22539;-83
2022/10/05 07:04:57;;;;;;;3.30;2.00;;;;;;;9.72;76.41;97471.52;108307;1270;24320;-83
2022/10/05 07:07:38;;;;;;;4.30;2.20;;;;;;;9.54;76.20;97480.18;108239;1270;24313;-83
2022/10/05 07:10:22;;;;;;;3.00;1.60;;;;;;;9.50;76.36;97477.07;108262;1270;28597;-83
2022/10/05 07:13:10;;;;;;;5.20;2.00;;;;;;;9.82;76.61;97467.98;108330;1270;22563;-82
2022/10/05 07:15:55;;;;;;;4.10;2.20;;;;;;;10.79;75.09;97463.36;108299;1269;22554;-82
2022/10/05 07:18:51;;;;;;;5.60;2.50;;;;;;;11.72;72.58;97464.98;108292;1271;28868;-80
2022/10/05 07:21:34;;;;;;;4.30;2.50;;;;;;;12.29;70.14;97461.23;108312;1270;25376;-82
2022/10/05 07:24:19;;;;;;;4.00;2.40;;;;;;;12.23;70.76;97466.56;108282;1271;22795;-82
2022/10/05 07:26:58;;;;;;;4.60;2.20;;;;;;;13.26;70.53;97469.73;108263;1270;22564;-82
2022/10/05 07:29:38;;;;;;;4.40;2.10;;;;;;;13.95;68.00;97469.90;108199;1270;34985;-81
2022/10/05 07:32:24;;;;;;;3.10;2.20;;;;;;;14.22;64.39;97467.45;108299;1271;23612;-82
2022/10/05 07:35:04;;;;;;;3.30;2.00;;;;;;;13.90;64.92;97460.77;108168;1271;25368;-81
2022/10/05 07:37:57;;;;;;;4.90;2.50;;;;;;;14.36;64.33;97454.90;108303;1270;22532;-81
2022/10/05 07:40:32;;;;;;;6.60;3.20;;;;;;;14.53;64.54;97459.38;108260;1271;23708;-81
2022/10/05 07:43:13;;;;;;;5.10;2.70;;;;;;;15.62;63.25;97460.59;108329;1270;22577;-81
2022/10/05 07:45:51;;;;;;;4.40;2.60;;;;;;;17.02;63.36;97461.67;108244;1270;22584;-81
2022/10/05 07:48:27;;;;;;;3.40;2.50;;;;;;;17.58;57.76;97455.87;108342;1269;24858;-76
2022/10/05 07:51:03;;;;;;;3.90;2.30;;;;;;;17.98;57.37;97450.41;108340;1271;22564;-76
2022/10/05 07:53:41;;;;;;;9.60;8.70;;;;;;;18.13;54.03;97446.94;108323;1270;23778;-76
2022/10/05 07:56:20;;;;;;;2.40;2.20;;;;;;;17.91;54.49;97451.34;108288;1270;22552;-76
2022/10/05 07:59:00;;;;;;;3.50;1.90;;;;;;;17.54;53.28;97451.52;108270;1270;30143;-77
2022/10/05 08:01:35;;;;;;;3.40;2.30;;;;;;;16.78;54.54;97444.59;108293;1270;22552;-77
2022/10/05 08:04:14;;;;;;;3.80;1.90;;;;;;;16.52;55.71;97442.07;108331;1270;22541;-77
2022/10/05 08:06:50;;;;;;;4.80;2.30;;;;;;;15.85;55.19;97439.56;108220;1271;22624;-77
2022/10/05 08:09:44;;;;;;;4.50;2.00;;;;;;;15.52;57.00;97431.71;108258;1270;25668;-77
2022/10/05 08:12:32;;;;;;;3.30;2.00;;;;;;;15.49;58.35;97437.20;108269;1270;22529;-77
2022/10/05 08:15:09;;;;;;;4.70;2.30;;;;;;;15.38;57.95;97436.84;108355;1268;22569;-77
2022/10/05 08:17:50;;;;;;;4.50;2.10;;;;;;;15.51;59.16;97444.49;108328;1268;22759;-77
2022/10/05 08:20:37;;;;;;;5.60;2.30;;;;;;;16.19;58.63;97443.77;108227;1270;26644;-77
2022/10/05 08:23:19;;;;;;;3.00;2.00;;;;;;;16.63;59.08;97444.06;108267;1271;22544;-77
2022/10/05 08:26:02;;;;;;;4.10;2.00;;;;;;;17.45;57.10;97443.01;108343;1268;24442;-77
2022/10/05 08:28:38;;;;;;;3.80;2.00;;;;;;;17.29;54.95;97438.75;108271;1268;29291;-77
2022/10/05 08:31:18;;;;;;;3.90;2.30;;;;;;;17.13;55.50;97444.66;108324;1270;22634;-77
2022/10/05 08:33:58;;;;;;;3.20;2.20;;;;;;;17.12;55.22;97441.94;108310;1271;22528;-77
2022/10/05 08:36:49;;;;;;;3.60;2.20;;;;;;;16.84;54.43;97444.76;108249;1271;22554;-76
2022/10/05 08:39:23;;;;;;;4.10;1.80;;;;;;;16.63;54.71;97435.25;108298;1268;24522;-77
2022/10/05 08:42:15;;;;;;;4.60;2.50;;;;;;;16.12;55.08;97432.71;108276;1270;22548;-77
2022/10/05 08:45:13;;;;;;;5.60;2.40;;;;;;;15.78;57.21;97432.41;108318;1268;22779;-77
2022/10/05 08:48:12;;;;;;;5.10;2.90;;;;;;;15.63;56.75;97431.17;108242;1270;23905;-77
2022/10/05 08:51:12;;;;;;;6.00;2.90;;;;;;;15.13;58.10;97431.58;108114;1271;26768;-76
2022/10/05 08:54:13;;;;;;;3.40;2.30;;;;;;;15.02;58.80;97428.52;108249;1271;25483;-77
2022/10/05 08:56:54;;;;;;;3.80;2.30;;;;;;;14.91;58.74;97419.64;108241;1271;22766;-76
2022/10/05 08:59:54;;;;;;;4.60;2.50;;;;;;;14.67;59.05;97416.45;108227;1268;24557;-76
2022/10/05 09:02:38;;;;;;;6.80;2.50;;;;;;;14.72;59.92;97433.95;108307;1268;23886;-77
2022/10/05 09:05:31;;;;;;;5.60;2.30;;;;;;;14.69;59.40;97434.36;108307;1268;24989;-77
2022/10/05 09:08:23;;;;;;;4.70;2.40;;;;;;;14.31;59.30;97438.83;108221;1271;24376;-76
2022/10/05 09:11:02;;;;;;;3.90;2.40;;;;;;;14.22;59.97;97437.63;108265;1268;22557;-76
2022/10/05 09:14:03;;;;;;;2.90;2.00;;;;;;;14.31;60.83;97437.44;108250;1271;22560;-77
2022/10/05 09:16:54;;;;;;;5.00;2.60;;;;;;;14.34;60.56;97439.87;108283;1268;22555;-77
2022/10/05 09:19:40;;;;;;;5.60;2.90;;;;;;;14.27;61.05;97444.84;108225;1268;31245;-77
2022/10/05 09:22:22;;;;;;;3.80;2.40;;;;;;;14.29;60.38;97444.45;108221;1271;22637;-76
2022/10/05 09:25:03;;;;;;;5.40;2.40;;;;;;;14.23;60.66;97442.64;108235;1271;23895;-76
2022/10/05 09:27:38;;;;;;;4.80;2.40;;;;;;;14.19;60.64;97444.48;108235;1271;22527;-77
2022/10/05 09:30:31;;;;;;;4.30;2.80;;;;;;;14.04;61.20;97437.73;108128;1271;25359;-76
2022/10/05 09:33:32;;;;;;;3.70;2.10;;;;;;;14.02;62.07;97429.17;108300;1268;23900;-76
2022/10/05 09:36:54;;;;;;;5.10;2.90;;;;;;;13.93;61.99;97423.06;108223;1271;22515;-76
2022/10/05 09:39:54;;;;;;;4.50;2.60;;;;;;;13.82;62.36;97425.92;108235;1269;29204;-76
2022/10/05 09:42:41;;;;;;;4.50;2.90;;;;;;;13.72;62.65;97433.04;108331;1268;22562;-76
2022/10/05 09:45:48;;;;;;;4.30;2.40;;;;;;;13.75;63.22;97440.05;108321;1268;22929;-76
2022/10/05 09:48:50;;;;;;;5.10;3.20;;;;;;;13.88;63.11;97449.75;108305;1268;25401;-76
2022/10/05 09:52:10;;;;;;;6.20;3.60;;;;;;;13.97;63.14;97455.14;108303;1268;23711;-76
2022/10/05 09:55:24;;;;;;;6.70;3.30;;;;;;;14.18;62.99;97455.48;108355;1268;22623;-77
2022/10/05 09:58:36;;;;;;;3.70;2.40;;;;;;;14.30;63.13;97451.21;108333;1268;22689;-76
2022/10/05 10:01:31;;;;;;;3.60;2.50;;;;;;;14.28;62.53;97451.08;108276;1268;23704;-76
2022/10/05 10:04:28;;;;;;;4.20;3.00;;;;;;;14.24;62.40;97448.60;108340;1267;23849;-77
2022/10/05 10:07:36;;;;;;;7.20;3.70;;;;;;;14.33;63.01;97443.81;108358;1268;22701;-77
2022/10/05 10:10:42;;;;;;;4.80;3.20;;;;;;;14.44;63.89;97436.11;108251;1268;29648;-76
2022/10/05 10:13:40;;;;;;;5.00;3.80;;;;;;;14.66;64.25;97435.98;108302;1268;22562;-77
2022/10/05 10:16:39;;;;;;;5.00;3.50;;;;;;;14.91;64.73;97432.88;108248;1268;24476;-77
2022/10/05 10:19:28;;;;;;;7.50;4.40;;;;;;;15.02;63.74;97432.84;108263;1268;27454;-77
2022/10/05 10:22:21;;;;;;;5.50;3.40;;;;;;;15.02;63.74;97430.81;108058;1268;22598;-77
2022/10/05 10:25:30;;;;;;;7.60;4.00;;;;;;;14.98;63.93;97430.82;108293;1268;22591;-76
2022/10/05 10:28:18;;;;;;;5.40;4.00;;;;;;;15.05;64.40;97433.02;108260;1268;22520;-77
2022/10/05 10:31:17;;;;;;;5.10;3.40;;;;;;;15.11;64.39;97425.84;108294;1268;22661;-77
2022/10/05 10:34:13;;;;;;;4.10;3.30;;;;;;;15.14;63.92;97418.64;108323;1268;22544;-77
2022/10/05 10:37:11;;;;;;;5.40;3.70;;;;;;;15.17;64.11;97414.86;108331;1268;23516;-76
2022/10/05 10:40:06;;;;;;;7.60;3.70;;;;;;;15.24;64.21;97413.17;108217;1268;33009;-77
2022/10/05 10:42:50;;;;;;;6.90;3.30;;;;;;;15.30;64.51;97408.82;108308;1268;22557;-77
2022/10/05 10:45:40;;;;;;;4.40;3.00;;;;;;;15.29;63.96;97406.52;108330;1268;22611;-76
2022/10/05 10:48:34;;;;;;;4.50;3.00;;;;;;;15.27;63.29;97409.98;108329;1268;24722;-77
2022/10/05 10:51:18;;;;;;;6.20;3.30;;;;;;;15.22;63.13;97404.81;108301;1268;22651;-76
2022/10/05 10:54:27;;;;;;;5.00;3.30;;;;;;;15.26;62.84;97402.57;108206;1270;22558;-76
2022/10/05 10:57:09;;;;;;;5.50;2.80;;;;;;;15.35;62.81;97402.39;108290;1268;22565;-76
2022/10/05 11:00:28;;;;;;;6.50;3.20;;;;;;;15.48;63.05;97403.38;108227;1270;29061;-76
2022/10/05 11:03:30;;;;;;;4.90;2.80;;;;;;;15.53;62.10;97401.76;108210;1270;22552;-76
2022/10/05 11:06:34;;;;;;;4.90;2.90;;;;;;;15.53;62.00;97398.71;108168;1270;23274;-76
2022/10/05 11:09:58;;;;;;;3.90;2.50;;;;;;;15.57;61.32;97395.06;108160;1270;22538;-76
2022/10/05 11:12:56;;;;;;;4.50;3.00;;;;;;;15.65;62.19;97396.73;107883;1276;22570;-76
2022/10/05 11:16:12;;;;;;;4.60;2.60;;;;;;;15.73;61.31;97404.23;108192;1270;24357;-76
2022/10/05 11:19:07;;;;;;;4.10;2.40;;;;;;;15.73;60.76;97406.33;108236;1270;29774;-76
2022/10/05 11:21:42;;;;;;;4.00;2.40;;;;;;;15.78;61.12;97405.14;108259;1270;22695;-77
2022/10/05 11:25:00;;;;;;;5.30;2.50;;;;;;;15.90;61.23;97400.79;108260;1270;24358;-76
2022/10/05 11:28:01;;;;;;;4.60;2.80;;;;;;;15.96;60.18;97398.16;108072;1270;24201;-76
2022/10/05 11:30:57;;;;;;;3.40;2.20;;;;;;;16.10;60.07;97395.52;108168;1269;29940;-77
2022/10/05 11:34:14;;;;;;;4.00;2.10;;;;;;;16.18;60.14;97396.92;108203;1270;24339;-77
2022/10/05 11:37:06;;;;;;;2.60;1.90;;;;;;;16.25;59.85;97399.31;107918;1274;22557;-77
2022/10/05 11:39:53;;;;;;;2.80;1.80;;;;;;;16.34;59.48;97407.92;108205;1268;32585;-76
2022/10/05 11:43:10;;;;;;;3.70;2.10;;;;;;;16.35;59.11;97402.94;108235;1270;22531;-77
2022/10/05 11:45:58;;;;;;;4.00;1.70;;;;;;;16.32;58.14;97409.73;107924;1274;22914;-77
2022/10/05 11:49:11;;;;;;;3.60;1.80;;;;;;;16.28;58.33;97408.81;108199;1269;27413;-77
2022/10/05 11:51:51;;;;;;;2.40;1.70;;;;;;;16.34;59.15;97408.94;108278;1270;23244;-77
2022/10/05 11:54:37;;;;;;;3.10;1.40;;;;;;;16.38;59.22;97407.33;108260;1270;22561;-76
2022/10/05 11:57:16;;;;;;;3.20;1.90;;;;;;;16.45;59.44;97405.15;108296;1270;25373;-77
2022/10/05 11:59:55;;;;;;;3.50;1.90;;;;;;;16.49;59.59;97405.35;108221;1270;29950;-77
2022/10/05 12:02:43;;;;;;;3.60;1.70;;;;;;;16.52;59.26;97404.39;108264;1270;22555;-77
2022/10/05 12:05:20;;;;;;;3.00;2.10;;;;;;;16.59;59.27;97409.16;108243;1270;24033;-76
2022/10/05 12:08:05;;;;;;;3.20;2.10;;;;;;;16.66;59.62;97405.90;108292;1270;22546;-78
2022/10/05 12:10:44;;;;;;;3.20;2.20;;;;;;;16.70;59.70;97407.92;108187;1270;38091;-76
2022/10/05 12:13:25;;;;;;;5.10;2.70;;;;;;;16.73;59.40;97404.64;108252;1270;25583;-77
2022/10/05 12:15:59;;;;;;;;;;;;;;;16.72;59.26;97404.81;108292;1270;22513;-77
2022/10/05 12:18:48;;;;;;;4.70;2.80;;;;;;;16.76;59.92;97405.72;108120;1270;35819;-76
2022/10/05 12:21:28;;;;;;;8.90;2.40;;;;;;;16.79;59.34;97405.92;108192;1270;22633;-77
2022/10/05 12:24:04;;;;;;;4.50;2.30;;;;;;;16.76;59.42;97405.66;108185;1270;22536;-76
2022/10/05 12:26:40;;;;;;;4.30;2.50;;;;;;;16.76;59.76;97412.00;108256;1270;22587;-76
2022/10/05 12:29:18;;;;;;;3.60;2.40;;;;;;;16.71;59.49;97413.69;108233;1270;35860;-76
2022/10/05 12:31:57;;;;;;;3.70;2.40;;;;;;;16.66;59.05;97413.73;108334;1266;23098;-76
2022/10/05 12:34:43;;;;;;;3.70;2.00;;;;;;;16.62;59.45;97412.98;108350;1268;23429;-77
2022/10/05 12:37:32;;;;;;;3.30;2.30;;;;;;;16.60;59.31;97414.02;108300;1268;22552;-76
2022/10/05 12:40:06;;;;;;;4.70;2.60;;;;;;;16.52;58.86;97413.70;108179;1270;24102;-76
2022/10/05 12:42:45;;;;;;;4.00;2.40;;;;;;;16.48;59.10;97408.52;108355;1268;23373;-76
2022/10/05 12:45:30;;;;;;;4.50;2.50;;;;;;;16.48;59.30;97401.16;108317;1268;24213;-76
2022/10/05 12:48:17;;;;;;;4.90;2.80;;;;;;;16.43;59.13;97399.03;108323;1268;22910;-77
2022/10/05 12:50:55;;;;;;;4.00;2.40;;;;;;;16.43;59.52;97402.93;108171;1270;39287;-76